Time;durP1;ratioP1;P1;durP2;ratioP2;P2;SDS_P1;SDS_P2;PMS_P1;PMS_P2;Temp;Humidity;BMP_temperature;BMP_pressure;BME280_temperature;BME280_humidity;BME280_pressure;Samples;Min_cycle;Max_cycle;Signal;HPM_P1;HPM_P2
2021/08/13 00:00:04;;;;;;;;;;;;;;;;;;5049362;28;19936;-71
2021/08/13 00:02:31;;;;;;;;;;;;;;;;;;5050927;28;20015;-71
2021/08/13 00:04:58;;;;;;;;;;;;;;;;;;5050607;28;19924;-71
2021/08/13 00:07:25;;;;;;;;;;;;;;;;;;5047626;28;19928;-71
2021/08/13 00:09:52;;;;;;;;;;;;;;;;;;5049772;28;19936;-72
2021/08/13 00:12:19;;;;;;;;;;;;;;;;;;5049777;28;19939;-71
2021/08/13 00:14:46;;;;;;;;;;;;;;;;;;5051991;28;19935;-74
2021/08/13 00:17:13;;;;;;;;;;;;;;;;;;5048194;28;19943;-71
2021/08/13 00:19:40;;;;;;;;;;;;;;;;;;5050379;28;19931;-71
2021/08/13 00:22:07;;;;;;;;;;;;;;;;;;5051229;28;20462;-71
2021/08/13 00:24:33;;;;;;;;;;;;;;;;;;5049830;28;19932;-71
2021/08/13 00:27:00;;;;;;;;;;;;;;;;;;5053440;28;20027;-71
2021/08/13 00:29:27;;;;;;;;;;;;;;;;;;5051255;28;19951;-71
2021/08/13 00:31:54;;;;;;;;;;;;;;;;;;5056493;28;19925;-72
2021/08/13 00:34:21;;;;;;;;;;;;;;;;;;5053963;28;19924;-71
2021/08/13 00:36:48;;;;;;;;;;;;;;;;;;5053970;28;19925;-71
2021/08/13 00:39:15;;;;;;;;;;;;;;;;;;5055533;28;20039;-72
2021/08/13 00:41:42;;;;;;;;;;;;;;;;;;5055104;28;20320;-71
2021/08/13 00:44:09;;;;;;;;;;;;;;;;;;5054592;28;20024;-71
2021/08/13 00:46:36;;;;;;;;;;;;;;;;;;5050468;28;19932;-71
2021/08/13 00:49:03;;;;;;;;;;;;;;;;;;5054927;28;19946;-72
2021/08/13 00:51:30;;;;;;;;;;;;;;;;;;5051842;28;19931;-71
2021/08/13 00:53:57;;;;;;;;;;;;;;;;;;5054891;28;19929;-71
2021/08/13 00:56:25;;;;;;;;;;;;;;;;;;5056201;28;20015;-71
2021/08/13 00:58:52;;;;;;;;;;;;;;;;;;5055443;28;19925;-72
2021/08/13 01:01:18;;;;;;;;;;;;;;;;;;5052617;28;19925;-71
2021/08/13 01:03:45;;;;;;;;;;;;;;;;;;5055643;28;19925;-71
2021/08/13 01:06:12;;;;;;;;;;;;;;;;;;5051217;28;19924;-71
2021/08/13 01:08:39;;;;;;;;;;;;;;;;;;5054169;28;19924;-72
2021/08/13 01:11:06;;;;;;;;;;;;;;;;;;5050447;28;19924;-70
2021/08/13 01:13:33;;;;;;;;;;;;;;;;;;5052684;28;19925;-71
2021/08/13 01:16:01;;;;;;;;;;;;;;;;;;5055221;28;19932;-71
2021/08/13 01:18:28;;;;;;;;;;;;;;;;;;5050259;28;20542;-71
2021/08/13 01:20:55;;;;;;;;;;;;;;;;;;5053262;28;19925;-70
2021/08/13 01:23:22;;;;;;;;;;;;;;;;;;5054777;28;19928;-71
2021/08/13 01:25:49;;;;;;;;;;;;;;;;;;5055336;28;19925;-71
2021/08/13 01:28:16;;;;;;;;;;;;;;;;;;5051372;28;19933;-71
2021/08/13 01:30:43;;;;;;;;;;;;;;;;;;5050023;28;19929;-71
2021/08/13 01:33:11;;;;;;;;;;;;;;;;;;5053345;28;20303;-72
2021/08/13 01:35:38;;;;;;;;;;;;;;;;;;5053033;28;19948;-71
2021/08/13 01:38:05;;;;;;;;;;;;;;;;;;5052054;28;20280;-73
2021/08/13 01:40:32;;;;;;;;;;;;;;;;;;5050047;28;19925;-71
2021/08/13 01:42:59;;;;;;;;;;;;;;;;;;5054628;28;19925;-73
2021/08/13 01:45:28;;;;;;;;;;;;;;;;;;5051455;28;20467;-71
2021/08/13 01:47:55;;;;;;;;;;;;;;;;;;5052774;28;19932;-72
2021/08/13 01:50:22;;;;;;;;;;;;;;;;;;5048851;28;19925;-71
2021/08/13 01:52:49;;;;;;;;;;;;;;;;;;5054057;28;19925;-71
2021/08/13 01:55:16;;;;;;;;;;;;;;;;;;5056788;28;19928;-71
2021/08/13 01:57:43;;;;;;;;;;;;;;;;;;5054195;28;20031;-71
2021/08/13 02:00:10;;;;;;;;;;;;;;;;;;5049785;28;19932;-71
2021/08/13 02:02:37;;;;;;;;;;;;;;;;;;5048932;28;19936;-72
2021/08/13 02:05:04;;;;;;;;;;;;;;;;;;5051701;28;19936;-71
2021/08/13 02:07:31;;;;;;;;;;;;;;;;;;5049497;28;20516;-71
2021/08/13 02:09:58;;;;;;;;;;;;;;;;;;5054170;28;19929;-71
2021/08/13 02:12:25;;;;;;;;;;;;;;;;;;5051685;28;19925;-71
2021/08/13 02:14:52;;;;;;;;;;;;;;;;;;5054344;28;19931;-72
2021/08/13 02:17:19;;;;;;;;;;;;;;;;;;5050725;28;19925;-71
2021/08/13 02:19:46;;;;;;;;;;;;;;;;;;5051910;28;19932;-71
2021/08/13 02:22:13;;;;;;;;;;;;;;;;;;5054108;28;19932;-71
2021/08/13 02:24:40;;;;;;;;;;;;;;;;;;5053848;28;20403;-72
2021/08/13 02:27:07;;;;;;;;;;;;;;;;;;5050049;28;20377;-71
2021/08/13 02:29:33;;;;;;;;;;;;;;;;;;5046981;28;19924;-71
2021/08/13 02:32:00;;;;;;;;;;;;;;;;;;5051250;28;19931;-71
2021/08/13 02:34:27;;;;;;;;;;;;;;;;;;5054082;28;19935;-71
2021/08/13 02:36:54;;;;;;;;;;;;;;;;;;5051355;28;19955;-72
2021/08/13 02:39:21;;;;;;;;;;;;;;;;;;5050883;28;19929;-71
2021/08/13 02:41:48;;;;;;;;;;;;;;;;;;5055872;28;19955;-71
2021/08/13 02:44:15;;;;;;;;;;;;;;;;;;5053617;28;20399;-71
2021/08/13 02:46:42;;;;;;;;;;;;;;;;;;5049744;28;19929;-72
2021/08/13 02:49:09;;;;;;;;;;;;;;;;;;5050732;28;20449;-71
2021/08/13 02:51:36;;;;;;;;;;;;;;;;;;5051561;28;20400;-71
2021/08/13 02:54:03;;;;;;;;;;;;;;;;;;5052194;28;19925;-72
2021/08/13 02:56:30;;;;;;;;;;;;;;;;;;5043047;28;19941;-70
2021/08/13 02:58:57;;;;;;;;;;;;;;;;;;5049927;28;20292;-71
2021/08/13 03:01:24;;;;;;;;;;;;;;;;;;5049409;28;19936;-71
2021/08/13 03:03:51;;;;;;;;;;;;;;;;;;5046349;28;19931;-72
2021/08/13 03:06:18;;;;;;;;;;;;;;;;;;5047923;28;20039;-71
2021/08/13 03:08:45;;;;;;;;;;;;;;;;;;5049504;28;19935;-71
2021/08/13 03:11:11;;;;;;;;;;;;;;;;;;5048790;28;20011;-71
2021/08/13 03:13:38;;;;;;;;;;;;;;;;;;5047938;28;19929;-72
2021/08/13 03:16:05;;;;;;;;;;;;;;;;;;5049089;28;20280;-71
2021/08/13 03:18:33;;;;;;;;;;;;;;;;;;5049887;28;19931;-72
2021/08/13 03:20:59;;;;;;;;;;;;;;;;;;5050352;28;21432;-71
2021/08/13 03:23:26;;;;;;;;;;;;;;;;;;5047156;28;19931;-71
2021/08/13 03:25:53;;;;;;;;;;;;;;;;;;5049015;28;19935;-72
2021/08/13 03:28:20;;;;;;;;;;;;;;;;;;5051133;28;20304;-71
2021/08/13 03:30:47;;;;;;;;;;;;;;;;;;5051375;28;20409;-71
2021/08/13 03:33:14;;;;;;;;;;;;;;;;;;5051781;28;19925;-74
2021/08/13 03:35:41;;;;;;;;;;;;;;;;;;5049444;28;19931;-71
2021/08/13 03:38:08;;;;;;;;;;;;;;;;;;5049947;28;20348;-71
2021/08/13 03:43:10;;;;;;;;;;;;;;;;;;4936511;28;19926;-73
2021/08/13 03:45:37;;;;;;;;;;;;;;;;;;4926018;29;20382;-73
2021/08/13 03:48:04;;;;;;;;;;;;;;;;;;4924995;28;19934;-73
2021/08/13 03:50:31;;;;;;;;;;;;;;;;;;4926805;28;19927;-73
2021/08/13 03:52:58;;;;;;;;;;;;;;;;;;4915641;28;19927;-72
2021/08/13 03:55:25;;;;;;;;;;;;;;;;;;4912272;29;20253;-73
2021/08/13 03:57:52;;;;;;;;;;;;;;;;;;4907890;28;19934;-73
2021/08/13 04:00:18;;;;;;;;;;;;;;;;;;4907893;29;19999;-73
2021/08/13 04:02:45;;;;;;;;;;;;;;;;;;4912226;28;19935;-73
2021/08/13 04:05:12;;;;;;;;;;;;;;;;;;4915999;28;19953;-72
2021/08/13 04:07:39;;;;;;;;;;;;;;;;;;4916405;29;20395;-72
2021/08/13 04:10:06;;;;;;;;;;;;;;;;;;4915049;29;19937;-72
2021/08/13 04:12:33;;;;;;;;;;;;;;;;;;4912732;28;20193;-72
2021/08/13 04:15:00;;;;;;;;;;;;;;;;;;4916818;28;19934;-74
2021/08/13 04:17:27;;;;;;;;;;;;;;;;;;4914648;28;19999;-73
2021/08/13 04:19:54;;;;;;;;;;;;;;;;;;4912739;29;19942;-74
2021/08/13 04:22:21;;;;;;;;;;;;;;;;;;4909827;28;19927;-74
2021/08/13 04:24:48;;;;;;;;;;;;;;;;;;4914702;28;20188;-73
2021/08/13 04:27:15;;;;;;;;;;;;;;;;;;4912928;28;19931;-73
2021/08/13 04:29:41;;;;;;;;;;;;;;;;;;4911639;28;19931;-73
2021/08/13 04:32:08;;;;;;;;;;;;;;;;;;4913376;28;19950;-74
2021/08/13 04:34:35;;;;;;;;;;;;;;;;;;4915733;28;20021;-74
2021/08/13 04:37:02;;;;;;;;;;;;;;;;;;4922363;28;20370;-73
2021/08/13 04:39:29;;;;;;;;;;;;;;;;;;4915889;29;19928;-73
2021/08/13 04:41:56;;;;;;;;;;;;;;;;;;4922677;29;19933;-73
2021/08/13 04:44:23;;;;;;;;;;;;;;;;;;4934584;29;19933;-74
2021/08/13 04:46:50;;;;;;;;;;;;;;;;;;4943775;29;19932;-74
2021/08/13 04:49:17;;;;;;;;;;;;;;;;;;4935445;28;19935;-73
2021/08/13 04:51:44;;;;;;;;;;;;;;;;;;4938632;28;19935;-74
2021/08/13 04:54:11;;;;;;;;;;;;;;;;;;4933478;29;20367;-73
2021/08/13 04:56:38;;;;;;;;;;;;;;;;;;4938161;29;19934;-75
2021/08/13 04:59:05;;;;;;;;;;;;;;;;;;4936589;28;20035;-71
2021/08/13 05:01:32;;;;;;;;;;;;;;;;;;4928610;28;19927;-72
2021/08/13 05:03:59;;;;;;;;;;;;;;;;;;4937149;29;20017;-73
2021/08/13 05:06:26;;;;;;;;;;;;;;;;;;4934209;28;20302;-73
2021/08/13 05:08:53;;;;;;;;;;;;;;;;;;4929104;29;19927;-72
2021/08/13 05:11:20;;;;;;;;;;;;;;;;;;4929293;28;19927;-73
2021/08/13 05:13:47;;;;;;;;;;;;;;;;;;4933711;29;19935;-73
2021/08/13 05:16:14;;;;;;;;;;;;;;;;;;4931544;28;20409;-73
2021/08/13 05:18:41;;;;;;;;;;;;;;;;;;4928123;29;19950;-73
2021/08/13 05:21:08;;;;;;;;;;;;;;;;;;4934312;28;19927;-73
2021/08/13 05:23:35;;;;;;;;;;;;;;;;;;4931947;29;20297;-73
2021/08/13 05:26:02;;;;;;;;;;;;;;;;;;4936240;29;20291;-73
2021/08/13 05:28:29;;;;;;;;;;;;;;;;;;4942250;28;19925;-73
2021/08/13 05:30:56;;;;;;;;;;;;;;;;;;4934371;28;20013;-72
2021/08/13 05:33:23;;;;;;;;;;;;;;;;;;4932185;28;19935;-73
2021/08/13 05:35:51;;;;;;;;;;;;;;;;;;4933598;28;19927;-73
2021/08/13 05:38:17;;;;;;;;;;;;;;;;;;4929563;28;19927;-73
2021/08/13 05:40:44;;;;;;;;;;;;;;;;;;4930535;28;19927;-73
2021/08/13 05:43:11;;;;;;;;;;;;;;;;;;4935964;29;20397;-74
2021/08/13 05:45:39;;;;;;;;;;;;;;;;;;4934866;29;19977;-75
2021/08/13 05:48:06;;;;;;;;;;;;;;;;;;4928528;28;19934;-74
2021/08/13 05:50:33;;;;;;;;;;;;;;;;;;4933785;28;19962;-74
2021/08/13 05:53:00;;;;;;;;;;;;;;;;;;4936845;28;20456;-74
2021/08/13 05:55:27;;;;;;;;;;;;;;;;;;4933441;29;19946;-75
2021/08/13 05:57:54;;;;;;;;;;;;;;;;;;4930138;28;19927;-73
2021/08/13 06:00:21;;;;;;;;;;;;;;;;;;4930156;28;19926;-74
2021/08/13 06:02:48;;;;;;;;;;;;;;;;;;4933561;28;19933;-70
2021/08/13 06:05:15;;;;;;;;;;;;;;;;;;4936713;28;20383;-70
2021/08/13 06:07:42;;;;;;;;;;;;;;;;;;4927911;28;19932;-70
2021/08/13 06:10:09;;;;;;;;;;;;;;;;;;4930253;28;19937;-71
2021/08/13 06:12:36;;;;;;;;;;;;;;;;;;4919204;28;20292;-71
2021/08/13 06:15:03;;;;;;;;;;;;;;;;;;4930798;28;20379;-71
2021/08/13 06:17:30;;;;;;;;;;;;;;;;;;4939130;28;20016;-70
2021/08/13 06:19:57;;;;;;;;;;;;;;;;;;4920274;28;19935;-70
2021/08/13 06:22:24;;;;;;;;;;;;;;;;;;4968392;28;19927;-72
2021/08/13 06:24:51;;;;;;;;;;;;;;;;;;4935973;28;19938;-69
2021/08/13 06:27:17;;;;;;;;;;;;;;;;;;4938680;28;19927;-72
2021/08/13 06:29:44;;;;;;;;;;;;;;;;;;4945318;28;20037;-72
2021/08/13 06:32:11;;;;;;;;;;;;;;;;;;4929541;28;20425;-73
2021/08/13 06:34:38;;;;;;;;;;;;;;;;;;4940826;28;19969;-74
2021/08/13 06:37:05;;;;;;;;;;;;;;;;;;4944300;28;19937;-71
2021/08/13 06:39:32;;;;;;;;;;;;;;;;;;4938867;28;19927;-71
2021/08/13 06:41:59;;;;;;;;;;;;;;;;;;4936225;28;19926;-69
2021/08/13 06:44:26;;;;;;;;;;;;;;;;;;4941729;28;19934;-69
2021/08/13 06:46:53;;;;;;;;;;;;;;;;;;4929293;28;20311;-70
2021/08/13 06:49:20;;;;;;;;;;;;;;;;;;4929031;29;19945;-71
2021/08/13 06:51:47;;;;;;;;;;;;;;;;;;4926946;28;19927;-71
2021/08/13 06:54:14;;;;;;;;;;;;;;;;;;4927148;28;19931;-71
2021/08/13 06:56:41;;;;;;;;;;;;;;;;;;4931336;28;19937;-70
2021/08/13 06:59:08;;;;;;;;;;;;;;;;;;4921038;28;19931;-72
2021/08/13 07:01:35;;;;;;;;;;;;;;;;;;4924064;28;20422;-69
2021/08/13 07:04:02;;;;;;;;;;;;;;;;;;4928892;28;19927;-70
2021/08/13 07:06:29;;;;;;;;;;;;;;;;;;4933526;28;19993;-71
2021/08/13 07:08:56;;;;;;;;;;;;;;;;;;4930872;29;20316;-71
2021/08/13 07:11:23;;;;;;;;;;;;;;;;;;4930528;28;20031;-71
2021/08/13 07:13:50;;;;;;;;;;;;;;;;;;4928027;29;20399;-70
2021/08/13 07:16:17;;;;;;;;;;;;;;;;;;4929742;28;19933;-69
2021/08/13 07:18:44;;;;;;;;;;;;;;;;;;4929977;29;19935;-69
2021/08/13 07:21:11;;;;;;;;;;;;;;;;;;4927456;28;19933;-71
2021/08/13 07:23:38;;;;;;;;;;;;;;;;;;4931792;29;19949;-70
2021/08/13 07:26:05;;;;;;;;;;;;;;;;;;4931097;28;19937;-69
2021/08/13 07:28:32;;;;;;;;;;;;;;;;;;4929211;29;19933;-69
2021/08/13 07:30:59;;;;;;;;;;;;;;;;;;4928729;28;20417;-71
2021/08/13 07:33:26;;;;;;;;;;;;;;;;;;4930147;28;19934;-71
2021/08/13 07:35:53;;;;;;;;;;;;;;;;;;4940751;28;19959;-71
2021/08/13 07:38:20;;;;;;;;;;;;;;;;;;4939135;28;19927;-70
2021/08/13 07:40:47;;;;;;;;;;;;;;;;;;4927555;28;19937;-70
2021/08/13 07:43:15;;;;;;;;;;;;;;;;;;4930744;28;19973;-71
2021/08/13 07:45:42;;;;;;;;;;;;;;;;;;4931342;28;19950;-70
2021/08/13 07:48:09;;;;;;;;;;;;;;;;;;4927479;28;19931;-70
2021/08/13 07:50:36;;;;;;;;;;;;;;;;;;4926776;28;19938;-70
2021/08/13 07:53:03;;;;;;;;;;;;;;;;;;4930647;28;19931;-70
2021/08/13 07:55:30;;;;;;;;;;;;;;;;;;4924196;28;20334;-74
2021/08/13 07:57:57;;;;;;;;;;;;;;;;;;4929285;28;19927;-74
2021/08/13 08:00:24;;;;;;;;;;;;;;;;;;4924409;28;19937;-71
2021/08/13 08:02:50;;;;;;;;;;;;;;;;;;4938899;28;19927;-72
2021/08/13 08:05:17;;;;;;;;;;;;;;;;;;4938087;28;20436;-71
2021/08/13 08:07:44;;;;;;;;;;;;;;;;;;4925749;28;19935;-71
2021/08/13 08:10:11;;;;;;;;;;;;;;;;;;4932172;28;19933;-71
2021/08/13 08:12:38;;;;;;;;;;;;;;;;;;4929172;28;19935;-69
2021/08/13 08:15:05;;;;;;;;;;;;;;;;;;4927229;28;19927;-70
2021/08/13 08:17:32;;;;;;;;;;;;;;;;;;4934948;28;19926;-70
2021/08/13 08:19:59;;;;;;;;;;;;;;;;;;4928833;28;20021;-68
2021/08/13 08:22:26;;;;;;;;;;;;;;;;;;4924750;28;19927;-70
2021/08/13 08:24:53;;;;;;;;;;;;;;;;;;4924891;29;19927;-68
2021/08/13 08:27:20;;;;;;;;;;;;;;;;;;4936856;28;20201;-69
2021/08/13 08:29:47;;;;;;;;;;;;;;;;;;4930311;28;19935;-69
2021/08/13 08:32:14;;;;;;;;;;;;;;;;;;4929249;28;19934;-69
2021/08/13 08:34:40;;;;;;;;;;;;;;;;;;4927294;29;20401;-68
2021/08/13 08:37:10;;;;;;;;;;;;;;;;;;4934973;28;20354;-69
2021/08/13 08:39:38;;;;;;;;;;;;;;;;;;4937662;28;19935;-68
2021/08/13 08:42:05;;;;;;;;;;;;;;;;;;4927796;28;19927;-68
2021/08/13 08:44:32;;;;;;;;;;;;;;;;;;4930642;28;19927;-69
2021/08/13 08:46:59;;;;;;;;;;;;;;;;;;4933548;28;20037;-67
2021/08/13 08:49:26;;;;;;;;;;;;;;;;;;4929637;28;19943;-69
2021/08/13 08:51:53;;;;;;;;;;;;;;;;;;4928708;28;20014;-69
2021/08/13 08:54:22;;;;;;;;;;;;;;;;;;4934507;29;20033;-69
2021/08/13 08:56:49;;;;;;;;;;;;;;;;;;4948703;28;19927;-69
2021/08/13 08:59:18;;;;;;;;;;;;;;;;;;4925917;28;20311;-68
2021/08/13 09:01:44;;;;;;;;;;;;;;;;;;4934444;28;19931;-69
2021/08/13 09:04:12;;;;;;;;;;;;;;;;;;4931520;28;19926;-69
2021/08/13 09:06:43;;;;;;;;;;;;;;;;;;4932300;28;19929;-67
2021/08/13 09:09:10;;;;;;;;;;;;;;;;;;4929218;28;20033;-69
2021/08/13 09:11:37;;;;;;;;;;;;;;;;;;4933067;28;20382;-70
2021/08/13 09:14:04;;;;;;;;;;;;;;;;;;4931580;28;20439;-71
2021/08/13 09:16:31;;;;;;;;;;;;;;;;;;4926878;28;20351;-70
2021/08/13 09:18:58;;;;;;;;;;;;;;;;;;4934282;28;19927;-68
2021/08/13 09:21:25;;;;;;;;;;;;;;;;;;4928883;28;20086;-68
2021/08/13 09:23:54;;;;;;;;;;;;;;;;;;4930996;28;19927;-68
2021/08/13 09:26:21;;;;;;;;;;;;;;;;;;4932008;28;19927;-69
2021/08/13 09:28:48;;;;;;;;;;;;;;;;;;4931801;29;19950;-70
2021/08/13 09:31:15;;;;;;;;;;;;;;;;;;4936648;28;19935;-69
2021/08/13 09:33:42;;;;;;;;;;;;;;;;;;4931409;28;20306;-70
2021/08/13 09:36:09;;;;;;;;;;;;;;;;;;4956874;28;19925;-70
2021/08/13 09:38:36;;;;;;;;;;;;;;;;;;4931436;28;19933;-69
2021/08/13 09:41:03;;;;;;;;;;;;;;;;;;4957235;23;20232;-65
2021/08/13 09:43:30;;;;;;;;;;;;;;;;;;4934153;28;19939;-70
2021/08/13 09:45:56;;;;;;;;;;;;;;;;;;4940558;28;19927;-68
2021/08/13 09:48:23;;;;;;;;;;;;;;;;;;4935213;28;19934;-65
2021/08/13 09:50:50;;;;;;;;;;;;;;;;;;4955133;28;19935;-67
2021/08/13 09:53:17;;;;;;;;;;;;;;;;;;4932213;28;20283;-65
2021/08/13 09:55:44;;;;;;;;;;;;;;;;;;4935797;28;19927;-66
2021/08/13 09:58:11;;;;;;;;;;;;;;;;;;4955122;28;20266;-66
2021/08/13 10:00:38;;;;;;;;;;;;;;;;;;4950329;28;19925;-66
2021/08/13 10:03:06;;;;;;;;;;;;;;;;;;4925602;28;19937;-65
2021/08/13 10:05:32;;;;;;;;;;;;;;;;;;4932000;28;19927;-65
2021/08/13 10:08:00;;;;;;;;;;;;;;;;;;4945457;28;19934;-66
2021/08/13 10:10:27;;;;;;;;;;;;;;;;;;4943433;28;20018;-69
2021/08/13 10:12:54;;;;;;;;;;;;;;;;;;4927310;28;20295;-66
2021/08/13 10:15:21;;;;;;;;;;;;;;;;;;4945445;28;19927;-67
2021/08/13 10:17:48;;;;;;;;;;;;;;;;;;4927691;28;19938;-66
2021/08/13 10:20:15;;;;;;;;;;;;;;;;;;4926093;28;19926;-65
2021/08/13 10:22:42;;;;;;;;;;;;;;;;;;4924328;28;19927;-66
2021/08/13 10:25:09;;;;;;;;;;;;;;;;;;4917968;28;19927;-66
2021/08/13 10:27:35;;;;;;;;;;;;;;;;;;4925637;29;19935;-65
2021/08/13 10:30:02;;;;;;;;;;;;;;;;;;4925787;29;19942;-66
2021/08/13 10:32:29;;;;;;;;;;;;;;;;;;4923294;28;19926;-66
2021/08/13 10:34:56;;;;;;;;;;;;;;;;;;4919979;29;19950;-67
2021/08/13 10:37:23;;;;;;;;;;;;;;;;;;4923815;28;19935;-65
2021/08/13 10:39:50;;;;;;;;;;;;;;;;;;4925720;28;19934;-66
2021/08/13 10:42:17;;;;;;;;;;;;;;;;;;4924519;28;19941;-69
2021/08/13 10:44:44;;;;;;;;;;;;;;;;;;4920644;28;20529;-66
2021/08/13 10:47:11;;;;;;;;;;;;;;;;;;4922756;29;19934;-65
2021/08/13 10:49:39;;;;;;;;;;;;;;;;;;4925698;29;20006;-67
2021/08/13 10:52:06;;;;;;;;;;;;;;;;;;4922450;28;20413;-66
2021/08/13 10:54:33;;;;;;;;;;;;;;;;;;4919849;29;19941;-68
2021/08/13 10:57:00;;;;;;;;;;;;;;;;;;4926412;28;19933;-66
2021/08/13 10:59:27;;;;;;;;;;;;;;;;;;4925019;29;19934;-66
2021/08/13 11:01:54;;;;;;;;;;;;;;;;;;4926525;28;19938;-68
2021/08/13 11:04:22;;;;;;;;;;;;;;;;;;4927239;29;19927;-66
2021/08/13 11:06:48;;;;;;;;;;;;;;;;;;4933936;28;20336;-66
2021/08/13 11:09:15;;;;;;;;;;;;;;;;;;4922329;28;20201;-66
2021/08/13 11:11:42;;;;;;;;;;;;;;;;;;4928119;28;19931;-69
2021/08/13 11:14:09;;;;;;;;;;;;;;;;;;4926873;29;19935;-67
2021/08/13 11:16:36;;;;;;;;;;;;;;;;;;4927892;28;20025;-66
2021/08/13 11:19:03;;;;;;;;;;;;;;;;;;4926378;29;19982;-66
2021/08/13 11:21:30;;;;;;;;;;;;;;;;;;4924869;29;19927;-67
2021/08/13 11:23:57;;;;;;;;;;;;;;;;;;4926305;29;19927;-67
2021/08/13 11:26:24;;;;;;;;;;;;;;;;;;4923810;29;19927;-66
2021/08/13 11:28:51;;;;;;;;;;;;;;;;;;4926277;29;20391;-66
2021/08/13 11:31:18;;;;;;;;;;;;;;;;;;4931503;28;19927;-67
2021/08/13 11:33:45;;;;;;;;;;;;;;;;;;4927158;29;20018;-68
2021/08/13 11:36:12;;;;;;;;;;;;;;;;;;4925661;28;19958;-68
2021/08/13 11:38:39;;;;;;;;;;;;;;;;;;4924285;29;19934;-67
2021/08/13 11:41:06;;;;;;;;;;;;;;;;;;4923996;28;20402;-68
2021/08/13 11:43:33;;;;;;;;;;;;;;;;;;4920975;29;19926;-69
2021/08/13 11:46:00;;;;;;;;;;;;;;;;;;4922490;28;19927;-67
2021/08/13 11:48:26;;;;;;;;;;;;;;;;;;4922886;29;20018;-66
2021/08/13 11:50:53;;;;;;;;;;;;;;;;;;4921723;28;19931;-67
2021/08/13 11:53:20;;;;;;;;;;;;;;;;;;4923305;29;19927;-66
2021/08/13 11:55:47;;;;;;;;;;;;;;;;;;4928664;28;19927;-67
2021/08/13 11:58:14;;;;;;;;;;;;;;;;;;4923242;29;20018;-69
2021/08/13 12:00:41;;;;;;;;;;;;;;;;;;4919659;28;19934;-67
2021/08/13 12:03:09;;;;;;;;;;;;;;;;;;4923410;28;19931;-66
2021/08/13 12:05:36;;;;;;;;;;;;;;;;;;4922268;28;20010;-67
2021/08/13 12:08:02;;;;;;;;;;;;;;;;;;4924440;28;20021;-69
2021/08/13 12:10:30;;;;;;;;;;;;;;;;;;4922891;29;19927;-68
2021/08/13 12:12:57;;;;;;;;;;;;;;;;;;4926498;28;19931;-67
2021/08/13 12:15:24;;;;;;;;;;;;;;;;;;4926195;28;19956;-66
2021/08/13 12:17:51;;;;;;;;;;;;;;;;;;4925006;28;19927;-70
2021/08/13 12:20:18;;;;;;;;;;;;;;;;;;4925876;28;19953;-68
2021/08/13 12:22:45;;;;;;;;;;;;;;;;;;4931907;28;19933;-67
2021/08/13 12:25:12;;;;;;;;;;;;;;;;;;4927974;29;20022;-68
2021/08/13 12:27:38;;;;;;;;;;;;;;;;;;4926785;29;19981;-67
2021/08/13 12:30:05;;;;;;;;;;;;;;;;;;4936767;28;20025;-70
2021/08/13 12:32:32;;;;;;;;;;;;;;;;;;4925881;29;19931;-68
2021/08/13 12:34:59;;;;;;;;;;;;;;;;;;4925420;29;20033;-69
2021/08/13 12:37:26;;;;;;;;;;;;;;;;;;4925161;28;19931;-69
2021/08/13 12:39:53;;;;;;;;;;;;;;;;;;4924291;29;19926;-69
2021/08/13 12:42:20;;;;;;;;;;;;;;;;;;4924166;28;19935;-68
2021/08/13 12:44:47;;;;;;;;;;;;;;;;;;4929020;28;20375;-68
2021/08/13 12:47:14;;;;;;;;;;;;;;;;;;4926257;29;20425;-67
2021/08/13 12:49:41;;;;;;;;;;;;;;;;;;4927097;28;20471;-66
2021/08/13 12:52:08;;;;;;;;;;;;;;;;;;4927742;29;19931;-67
2021/08/13 12:54:35;;;;;;;;;;;;;;;;;;4922039;28;19933;-70
2021/08/13 12:57:02;;;;;;;;;;;;;;;;;;4923027;29;20414;-66
2021/08/13 12:59:29;;;;;;;;;;;;;;;;;;4937174;28;19932;-69
2021/08/13 13:01:55;;;;;;;;;;;;;;;;;;4924072;29;19926;-67
2021/08/13 13:04:22;;;;;;;;;;;;;;;;;;4923858;28;19963;-69
2021/08/13 13:06:49;;;;;;;;;;;;;;;;;;4924503;29;19968;-68
2021/08/13 13:09:16;;;;;;;;;;;;;;;;;;4929370;29;19937;-68
2021/08/13 13:11:43;;;;;;;;;;;;;;;;;;4930083;29;20021;-68
2021/08/13 13:14:10;;;;;;;;;;;;;;;;;;4930089;29;19934;-68
2021/08/13 13:16:41;;;;;;;;;;;;;;;;;;4926324;28;20288;-68
2021/08/13 13:19:08;;;;;;;;;;;;;;;;;;4929678;29;19927;-67
2021/08/13 13:21:35;;;;;;;;;;;;;;;;;;4927169;28;19948;-68
2021/08/13 13:24:02;;;;;;;;;;;;;;;;;;4926113;29;19934;-68
2021/08/13 13:26:29;;;;;;;;;;;;;;;;;;4928536;28;19934;-69
2021/08/13 13:28:56;;;;;;;;;;;;;;;;;;4928300;28;19933;-70
2021/08/13 13:31:24;;;;;;;;;;;;;;;;;;4934928;28;19931;-68
2021/08/13 13:33:51;;;;;;;;;;;;;;;;;;4932281;28;19964;-69
2021/08/13 13:36:18;;;;;;;;;;;;;;;;;;4933045;28;19927;-67
2021/08/13 13:38:45;;;;;;;;;;;;;;;;;;4939900;28;19931;-67
2021/08/13 13:41:12;;;;;;;;;;;;;;;;;;4931429;28;19933;-67
2021/08/13 13:43:39;;;;;;;;;;;;;;;;;;4929046;28;20497;-67
2021/08/13 13:46:06;;;;;;;;;;;;;;;;;;4943345;28;20417;-69
2021/08/13 13:48:33;;;;;;;;;;;;;;;;;;4931336;28;19935;-69
2021/08/13 13:51:00;;;;;;;;;;;;;;;;;;4935246;28;19934;-66
2021/08/13 13:53:26;;;;;;;;;;;;;;;;;;4932742;29;20025;-67
2021/08/13 13:55:53;;;;;;;;;;;;;;;;;;4928221;28;19926;-67
2021/08/13 13:58:20;;;;;;;;;;;;;;;;;;4938084;28;20310;-68
2021/08/13 14:00:47;;;;;;;;;;;;;;;;;;4926615;28;19937;-68
2021/08/13 14:03:14;;;;;;;;;;;;;;;;;;4941959;28;19926;-69
2021/08/13 14:05:41;;;;;;;;;;;;;;;;;;4933810;28;19931;-68
2021/08/13 14:08:08;;;;;;;;;;;;;;;;;;4925627;28;20277;-70
2021/08/13 14:10:35;;;;;;;;;;;;;;;;;;4925777;28;20025;-69
2021/08/13 14:13:05;;;;;;;;;;;;;;;;;;4931800;28;19967;-69
2021/08/13 14:15:32;;;;;;;;;;;;;;;;;;4933054;28;20278;-68
2021/08/13 14:17:59;;;;;;;;;;;;;;;;;;4926107;28;20383;-67
2021/08/13 14:20:26;;;;;;;;;;;;;;;;;;4925730;29;19938;-68
2021/08/13 14:22:53;;;;;;;;;;;;;;;;;;4926277;28;19935;-69
2021/08/13 14:25:20;;;;;;;;;;;;;;;;;;4923033;28;19990;-67
2021/08/13 14:27:46;;;;;;;;;;;;;;;;;;4927903;28;19927;-67
2021/08/13 14:30:15;;;;;;;;;;;;;;;;;;4922924;28;20318;-67
2021/08/13 14:32:42;;;;;;;;;;;;;;;;;;4928789;28;19978;-67
2021/08/13 14:35:09;;;;;;;;;;;;;;;;;;4927916;28;19931;-67
2021/08/13 14:37:36;;;;;;;;;;;;;;;;;;4926409;28;20358;-66
2021/08/13 14:40:03;;;;;;;;;;;;;;;;;;4923952;28;19932;-68
2021/08/13 14:42:30;;;;;;;;;;;;;;;;;;4924160;28;19938;-67
2021/08/13 14:44:57;;;;;;;;;;;;;;;;;;4924691;28;19937;-67
2021/08/13 14:47:24;;;;;;;;;;;;;;;;;;4928047;28;19935;-67
2021/08/13 14:49:50;;;;;;;;;;;;;;;;;;4933268;28;19949;-67
2021/08/13 14:52:17;;;;;;;;;;;;;;;;;;4934551;28;20319;-67
2021/08/13 14:54:44;;;;;;;;;;;;;;;;;;4931652;28;19934;-65
2021/08/13 14:57:11;;;;;;;;;;;;;;;;;;4935523;28;19927;-67
2021/08/13 14:59:38;;;;;;;;;;;;;;;;;;4930843;28;20033;-67
2021/08/13 15:02:05;;;;;;;;;;;;;;;;;;4935372;28;19931;-68
2021/08/13 15:04:32;;;;;;;;;;;;;;;;;;4925426;28;19926;-66
2021/08/13 15:06:59;;;;;;;;;;;;;;;;;;4936194;28;20297;-69
2021/08/13 15:09:26;;;;;;;;;;;;;;;;;;4930577;28;20418;-67
2021/08/13 15:11:53;;;;;;;;;;;;;;;;;;4930365;28;19930;-69
2021/08/13 15:14:20;;;;;;;;;;;;;;;;;;4938219;28;19942;-66
2021/08/13 15:16:47;;;;;;;;;;;;;;;;;;4920989;28;19938;-67
2021/08/13 15:19:14;;;;;;;;;;;;;;;;;;4922684;28;20084;-67
2021/08/13 15:21:42;;;;;;;;;;;;;;;;;;4925890;28;20017;-68
2021/08/13 15:24:09;;;;;;;;;;;;;;;;;;4925780;28;19934;-67
2021/08/13 15:26:38;;;;;;;;;;;;;;;;;;4929780;28;20303;-66
2021/08/13 15:29:05;;;;;;;;;;;;;;;;;;4927231;28;20025;-68
2021/08/13 15:31:32;;;;;;;;;;;;;;;;;;4932545;28;19930;-68
2021/08/13 15:33:59;;;;;;;;;;;;;;;;;;4924431;28;19927;-68
2021/08/13 15:36:26;;;;;;;;;;;;;;;;;;4926613;29;20306;-67
2021/08/13 15:38:53;;;;;;;;;;;;;;;;;;4928229;28;19927;-66
2021/08/13 15:41:20;;;;;;;;;;;;;;;;;;4926414;28;19934;-66
2021/08/13 15:43:47;;;;;;;;;;;;;;;;;;4936738;28;20290;-66
2021/08/13 15:46:14;;;;;;;;;;;;;;;;;;4936158;28;19941;-66
2021/08/13 15:48:41;;;;;;;;;;;;;;;;;;4925096;28;19937;-67
2021/08/13 15:51:08;;;;;;;;;;;;;;;;;;4928058;28;19937;-66
2021/08/13 15:53:35;;;;;;;;;;;;;;;;;;4927030;28;20307;-68
2021/08/13 15:56:01;;;;;;;;;;;;;;;;;;4928593;28;20371;-66
2021/08/13 15:58:28;;;;;;;;;;;;;;;;;;4921570;28;19937;-66
2021/08/13 16:00:56;;;;;;;;;;;;;;;;;;4927613;29;19957;-66
2021/08/13 16:03:23;;;;;;;;;;;;;;;;;;4928646;28;19926;-68
2021/08/13 16:05:49;;;;;;;;;;;;;;;;;;4936582;28;20004;-66
2021/08/13 16:08:16;;;;;;;;;;;;;;;;;;4919710;28;19934;-66
2021/08/13 16:10:43;;;;;;;;;;;;;;;;;;4922430;28;19948;-66
2021/08/13 16:13:10;;;;;;;;;;;;;;;;;;4924693;28;19938;-67
2021/08/13 16:15:37;;;;;;;;;;;;;;;;;;4923215;28;19934;-68
2021/08/13 16:18:04;;;;;;;;;;;;;;;;;;4923383;29;20402;-66
2021/08/13 16:20:31;;;;;;;;;;;;;;;;;;4924928;29;20438;-68
2021/08/13 16:22:58;;;;;;;;;;;;;;;;;;4923759;28;19941;-65
2021/08/13 16:25:25;;;;;;;;;;;;;;;;;;4921586;28;19931;-67
2021/08/13 16:27:52;;;;;;;;;;;;;;;;;;4929150;28;19933;-66
2021/08/13 16:30:19;;;;;;;;;;;;;;;;;;4934547;28;20013;-67
2021/08/13 16:32:46;;;;;;;;;;;;;;;;;;4926244;28;19997;-67
2021/08/13 16:35:13;;;;;;;;;;;;;;;;;;4923930;29;20376;-66
2021/08/13 16:37:40;;;;;;;;;;;;;;;;;;4927145;29;19927;-66
2021/08/13 16:40:07;;;;;;;;;;;;;;;;;;4920880;28;19946;-66
2021/08/13 16:42:34;;;;;;;;;;;;;;;;;;4926291;29;20318;-67
2021/08/13 16:45:01;;;;;;;;;;;;;;;;;;4922475;29;20280;-67